sensor_id;sensor_type;location;lat;lon;timestamp;pressure;altitude;pressure_sealevel;temperature
22322;BMP180;11328;53.928;18.522;2024-03-07T00:00:23;101470.00;;;3.40
22322;BMP180;11328;53.928;18.522;2024-03-07T00:02:51;101475.00;;;3.40
22322;BMP180;11328;53.928;18.522;2024-03-07T00:05:21;101479.00;;;3.30
22322;BMP180;11328;53.928;18.522;2024-03-07T00:07:52;101461.00;;;3.30
22322;BMP180;11328;53.928;18.522;2024-03-07T00:10:19;101472.00;;;3.30
22322;BMP180;11328;53.928;18.522;2024-03-07T00:12:48;101466.00;;;3.30
22322;BMP180;11328;53.928;18.522;2024-03-07T00:15:16;101469.00;;;3.30
22322;BMP180;11328;53.928;18.522;2024-03-07T00:17:43;101480.00;;;3.30
22322;BMP180;11328;53.928;18.522;2024-03-07T00:20:11;101475.00;;;3.30
22322;BMP180;11328;53.928;18.522;2024-03-07T00:22:43;101476.00;;;3.30
22322;BMP180;11328;53.928;18.522;2024-03-07T00:25:11;101476.00;;;3.30
22322;BMP180;11328;53.928;18.522;2024-03-07T00:27:41;101483.00;;;3.20
22322;BMP180;11328;53.928;18.522;2024-03-07T00:30:08;101482.00;;;3.30
22322;BMP180;11328;53.928;18.522;2024-03-07T00:32:36;101474.00;;;3.30
22322;BMP180;11328;53.928;18.522;2024-03-07T00:35:07;101480.00;;;3.40
22322;BMP180;11328;53.928;18.522;2024-03-07T00:37:36;101479.00;;;3.40
22322;BMP180;11328;53.928;18.522;2024-03-07T00:40:03;101474.00;;;3.30
22322;BMP180;11328;53.928;18.522;2024-03-07T00:42:31;101482.00;;;3.30
22322;BMP180;11328;53.928;18.522;2024-03-07T00:44:58;101478.00;;;3.30
22322;BMP180;11328;53.928;18.522;2024-03-07T00:47:25;101479.00;;;3.30
22322;BMP180;11328;53.928;18.522;2024-03-07T00:49:52;101476.00;;;3.30
22322;BMP180;11328;53.928;18.522;2024-03-07T00:52:19;101471.00;;;3.30
22322;BMP180;11328;53.928;18.522;2024-03-07T00:54:46;101483.00;;;3.30
22322;BMP180;11328;53.928;18.522;2024-03-07T00:57:13;101373.00;;;3.10
22322;BMP180;11328;53.928;18.522;2024-03-07T00:59:41;101466.00;;;3.20
22322;BMP180;11328;53.928;18.522;2024-03-07T01:02:08;101467.00;;;3.20
22322;BMP180;11328;53.928;18.522;2024-03-07T01:04:36;101473.00;;;3.20
22322;BMP180;11328;53.928;18.522;2024-03-07T01:07:03;101435.00;;;3.10
22322;BMP180;11328;53.928;18.522;2024-03-07T01:09:30;101470.00;;;3.10
22322;BMP180;11328;53.928;18.522;2024-03-07T01:11:57;101459.00;;;3.10
22322;BMP180;11328;53.928;18.522;2024-03-07T01:14:27;101461.00;;;3.10
22322;BMP180;11328;53.928;18.522;2024-03-07T01:16:54;101478.00;;;3.20
22322;BMP180;11328;53.928;18.522;2024-03-07T01:19:21;101466.00;;;3.10
22322;BMP180;11328;53.928;18.522;2024-03-07T01:21:49;101476.00;;;3.10
22322;BMP180;11328;53.928;18.522;2024-03-07T01:24:16;101468.00;;;3.10
22322;BMP180;11328;53.928;18.522;2024-03-07T01:26:45;101469.00;;;3.10
22322;BMP180;11328;53.928;18.522;2024-03-07T01:29:12;101466.00;;;3.10
22322;BMP180;11328;53.928;18.522;2024-03-07T01:31:40;101459.00;;;3.10
22322;BMP180;11328;53.928;18.522;2024-03-07T01:34:07;101469.00;;;3.10
22322;BMP180;11328;53.928;18.522;2024-03-07T01:36:34;101474.00;;;3.10
22322;BMP180;11328;53.928;18.522;2024-03-07T01:39:02;101471.00;;;3.10
22322;BMP180;11328;53.928;18.522;2024-03-07T01:41:30;101469.00;;;3.00
22322;BMP180;11328;53.928;18.522;2024-03-07T01:43:58;101469.00;;;3.00
22322;BMP180;11328;53.928;18.522;2024-03-07T01:46:25;101466.00;;;3.00
22322;BMP180;11328;53.928;18.522;2024-03-07T01:48:52;101467.00;;;3.00
22322;BMP180;11328;53.928;18.522;2024-03-07T01:51:20;101466.00;;;2.90
22322;BMP180;11328;53.928;18.522;2024-03-07T01:53:49;101462.00;;;2.80
22322;BMP180;11328;53.928;18.522;2024-03-07T01:56:17;101457.00;;;2.80
22322;BMP180;11328;53.928;18.522;2024-03-07T01:58:47;101460.00;;;2.80
22322;BMP180;11328;53.928;18.522;2024-03-07T02:01:14;101454.00;;;2.80
22322;BMP180;11328;53.928;18.522;2024-03-07T02:03:42;101454.00;;;2.80
22322;BMP180;11328;53.928;18.522;2024-03-07T02:06:11;101461.00;;;2.80
22322;BMP180;11328;53.928;18.522;2024-03-07T02:08:39;101455.00;;;2.80
22322;BMP180;11328;53.928;18.522;2024-03-07T02:11:07;101454.00;;;2.70
22322;BMP180;11328;53.928;18.522;2024-03-07T02:13:37;101463.00;;;2.80
22322;BMP180;11328;53.928;18.522;2024-03-07T02:16:04;101454.00;;;2.80
22322;BMP180;11328;53.928;18.522;2024-03-07T02:18:31;101444.00;;;2.80
22322;BMP180;11328;53.928;18.522;2024-03-07T02:20:59;101453.00;;;2.70
22322;BMP180;11328;53.928;18.522;2024-03-07T02:23:26;101457.00;;;2.70
22322;BMP180;11328;53.928;18.522;2024-03-07T02:25:54;101440.00;;;2.60
22322;BMP180;11328;53.928;18.522;2024-03-07T02:28:21;101421.00;;;2.60
22322;BMP180;11328;53.928;18.522;2024-03-07T02:30:48;101449.00;;;2.60
22322;BMP180;11328;53.928;18.522;2024-03-07T02:33:16;101454.00;;;2.50
22322;BMP180;11328;53.928;18.522;2024-03-07T02:35:43;101447.00;;;2.60
22322;BMP180;11328;53.928;18.522;2024-03-07T02:38:10;101441.00;;;2.60
22322;BMP180;11328;53.928;18.522;2024-03-07T02:40:37;101442.00;;;2.60
22322;BMP180;11328;53.928;18.522;2024-03-07T02:43:04;101440.00;;;2.60
22322;BMP180;11328;53.928;18.522;2024-03-07T02:45:32;101447.00;;;2.60
22322;BMP180;11328;53.928;18.522;2024-03-07T02:48:00;101409.00;;;2.50
22322;BMP180;11328;53.928;18.522;2024-03-07T02:50:27;101451.00;;;2.50
22322;BMP180;11328;53.928;18.522;2024-03-07T02:52:54;101449.00;;;2.50
22322;BMP180;11328;53.928;18.522;2024-03-07T02:55:22;101454.00;;;2.50
22322;BMP180;11328;53.928;18.522;2024-03-07T02:57:49;101453.00;;;2.50
22322;BMP180;11328;53.928;18.522;2024-03-07T03:00:17;101452.00;;;2.50
22322;BMP180;11328;53.928;18.522;2024-03-07T03:02:57;101428.00;;;2.50
22322;BMP180;11328;53.928;18.522;2024-03-07T03:05:25;101448.00;;;2.40
22322;BMP180;11328;53.928;18.522;2024-03-07T03:07:52;101450.00;;;2.50
22322;BMP180;11328;53.928;18.522;2024-03-07T03:10:25;101457.00;;;2.50
22322;BMP180;11328;53.928;18.522;2024-03-07T03:12:57;101443.00;;;2.50
22322;BMP180;11328;53.928;18.522;2024-03-07T03:15:28;101455.00;;;2.50
22322;BMP180;11328;53.928;18.522;2024-03-07T03:17:57;101446.00;;;2.60
22322;BMP180;11328;53.928;18.522;2024-03-07T03:20:28;101450.00;;;2.60
22322;BMP180;11328;53.928;18.522;2024-03-07T03:23:03;101433.00;;;2.50
22322;BMP180;11328;53.928;18.522;2024-03-07T03:25:45;101449.00;;;2.50
22322;BMP180;11328;53.928;18.522;2024-03-07T03:28:16;101454.00;;;2.50
22322;BMP180;11328;53.928;18.522;2024-03-07T03:30:47;101457.00;;;2.40
22322;BMP180;11328;53.928;18.522;2024-03-07T03:33:15;101447.00;;;2.40
22322;BMP180;11328;53.928;18.522;2024-03-07T03:35:42;101449.00;;;2.40
22322;BMP180;11328;53.928;18.522;2024-03-07T03:38:09;101431.00;;;2.50
22322;BMP180;11328;53.928;18.522;2024-03-07T03:40:37;101448.00;;;2.50
22322;BMP180;11328;53.928;18.522;2024-03-07T03:43:04;101457.00;;;2.50
22322;BMP180;11328;53.928;18.522;2024-03-07T03:45:31;101452.00;;;2.50
22322;BMP180;11328;53.928;18.522;2024-03-07T03:48:02;101458.00;;;2.50
22322;BMP180;11328;53.928;18.522;2024-03-07T03:50:30;101458.00;;;2.40
22322;BMP180;11328;53.928;18.522;2024-03-07T03:52:58;101459.00;;;2.40
22322;BMP180;11328;53.928;18.522;2024-03-07T03:55:25;101461.00;;;2.40
22322;BMP180;11328;53.928;18.522;2024-03-07T03:57:52;101449.00;;;2.30
22322;BMP180;11328;53.928;18.522;2024-03-07T04:00:20;101448.00;;;2.30
22322;BMP180;11328;53.928;18.522;2024-03-07T04:02:50;101457.00;;;2.40
22322;BMP180;11328;53.928;18.522;2024-03-07T04:05:20;101456.00;;;2.30
22322;BMP180;11328;53.928;18.522;2024-03-07T04:07:48;101465.00;;;2.30
22322;BMP180;11328;53.928;18.522;2024-03-07T04:10:17;101452.00;;;2.20
22322;BMP180;11328;53.928;18.522;2024-03-07T04:12:44;101447.00;;;2.30
22322;BMP180;11328;53.928;18.522;2024-03-07T04:15:14;101448.00;;;2.30
22322;BMP180;11328;53.928;18.522;2024-03-07T04:17:46;101447.00;;;2.30
22322;BMP180;11328;53.928;18.522;2024-03-07T04:20:15;101450.00;;;2.30
22322;BMP180;11328;53.928;18.522;2024-03-07T04:22:45;101415.00;;;2.30
22322;BMP180;11328;53.928;18.522;2024-03-07T04:25:13;101450.00;;;2.30
22322;BMP180;11328;53.928;18.522;2024-03-07T04:27:40;101450.00;;;2.30
22322;BMP180;11328;53.928;18.522;2024-03-07T04:30:08;101448.00;;;2.30
22322;BMP180;11328;53.928;18.522;2024-03-07T04:32:40;101447.00;;;2.20
22322;BMP180;11328;53.928;18.522;2024-03-07T04:35:09;101448.00;;;2.20
22322;BMP180;11328;53.928;18.522;2024-03-07T04:37:39;101446.00;;;2.20
22322;BMP180;11328;53.928;18.522;2024-03-07T04:40:09;101452.00;;;2.10
22322;BMP180;11328;53.928;18.522;2024-03-07T04:42:48;101429.00;;;2.10
22322;BMP180;11328;53.928;18.522;2024-03-07T04:45:19;101451.00;;;2.10
22322;BMP180;11328;53.928;18.522;2024-03-07T04:47:48;101449.00;;;2.10
22322;BMP180;11328;53.928;18.522;2024-03-07T04:50:16;101449.00;;;2.20
22322;BMP180;11328;53.928;18.522;2024-03-07T04:52:46;101449.00;;;2.20
22322;BMP180;11328;53.928;18.522;2024-03-07T04:55:16;101448.00;;;2.30
22322;BMP180;11328;53.928;18.522;2024-03-07T04:57:44;101455.00;;;2.30
22322;BMP180;11328;53.928;18.522;2024-03-07T05:00:13;101438.00;;;2.20
22322;BMP180;11328;53.928;18.522;2024-03-07T05:02:46;101455.00;;;2.30
22322;BMP180;11328;53.928;18.522;2024-03-07T05:05:15;101459.00;;;2.30
22322;BMP180;11328;53.928;18.522;2024-03-07T05:07:48;101460.00;;;2.30
22322;BMP180;11328;53.928;18.522;2024-03-07T05:10:17;101463.00;;;2.20
22322;BMP180;11328;53.928;18.522;2024-03-07T05:12:44;101459.00;;;2.30
22322;BMP180;11328;53.928;18.522;2024-03-07T05:15:11;101465.00;;;2.30
22322;BMP180;11328;53.928;18.522;2024-03-07T05:17:38;101463.00;;;2.20
22322;BMP180;11328;53.928;18.522;2024-03-07T05:20:08;101466.00;;;2.20
22322;BMP180;11328;53.928;18.522;2024-03-07T05:22:37;101463.00;;;2.20
22322;BMP180;11328;53.928;18.522;2024-03-07T05:25:11;101430.00;;;2.20
22322;BMP180;11328;53.928;18.522;2024-03-07T05:27:39;101472.00;;;2.20
22322;BMP180;11328;53.928;18.522;2024-03-07T05:30:06;101461.00;;;2.20
22322;BMP180;11328;53.928;18.522;2024-03-07T05:32:37;101439.00;;;2.20
22322;BMP180;11328;53.928;18.522;2024-03-07T05:35:06;101450.00;;;2.10
22322;BMP180;11328;53.928;18.522;2024-03-07T05:37:33;101463.00;;;2.30
22322;BMP180;11328;53.928;18.522;2024-03-07T05:40:00;101468.00;;;2.30
22322;BMP180;11328;53.928;18.522;2024-03-07T05:42:30;101477.00;;;2.40
22322;BMP180;11328;53.928;18.522;2024-03-07T05:44:58;101464.00;;;2.40
22322;BMP180;11328;53.928;18.522;2024-03-07T05:47:26;101472.00;;;2.50
22322;BMP180;11328;53.928;18.522;2024-03-07T05:49:53;101478.00;;;2.50
22322;BMP180;11328;53.928;18.522;2024-03-07T05:52:20;101468.00;;;2.40
22322;BMP180;11328;53.928;18.522;2024-03-07T05:54:47;101472.00;;;2.50
22322;BMP180;11328;53.928;18.522;2024-03-07T05:57:14;101471.00;;;2.60
22322;BMP180;11328;53.928;18.522;2024-03-07T05:59:41;101475.00;;;2.70
22322;BMP180;11328;53.928;18.522;2024-03-07T06:02:08;101478.00;;;2.80
22322;BMP180;11328;53.928;18.522;2024-03-07T06:04:35;101472.00;;;2.80
22322;BMP180;11328;53.928;18.522;2024-03-07T06:07:02;101475.00;;;2.90
22322;BMP180;11328;53.928;18.522;2024-03-07T06:09:30;101470.00;;;2.90
22322;BMP180;11328;53.928;18.522;2024-03-07T06:11:59;101469.00;;;3.00
22322;BMP180;11328;53.928;18.522;2024-03-07T06:14:35;101486.00;;;3.10
22322;BMP180;11328;53.928;18.522;2024-03-07T06:17:02;101470.00;;;3.20
22322;BMP180;11328;53.928;18.522;2024-03-07T06:19:29;101479.00;;;3.40
22322;BMP180;11328;53.928;18.522;2024-03-07T06:21:57;101479.00;;;3.30
22322;BMP180;11328;53.928;18.522;2024-03-07T06:24:24;101481.00;;;3.50
22322;BMP180;11328;53.928;18.522;2024-03-07T06:26:54;101475.00;;;3.70
22322;BMP180;11328;53.928;18.522;2024-03-07T06:29:30;101480.00;;;3.70
22322;BMP180;11328;53.928;18.522;2024-03-07T06:31:57;101473.00;;;3.80
22322;BMP180;11328;53.928;18.522;2024-03-07T06:34:25;101477.00;;;3.90
22322;BMP180;11328;53.928;18.522;2024-03-07T06:36:54;101478.00;;;4.00
22322;BMP180;11328;53.928;18.522;2024-03-07T06:39:22;101483.00;;;4.20
22322;BMP180;11328;53.928;18.522;2024-03-07T06:41:49;101489.00;;;4.30
22322;BMP180;11328;53.928;18.522;2024-03-07T06:44:16;101494.00;;;4.50
22322;BMP180;11328;53.928;18.522;2024-03-07T06:46:46;101494.00;;;4.60
22322;BMP180;11328;53.928;18.522;2024-03-07T06:49:13;101494.00;;;4.70
22322;BMP180;11328;53.928;18.522;2024-03-07T06:51:40;101500.00;;;4.90
22322;BMP180;11328;53.928;18.522;2024-03-07T06:54:07;101501.00;;;5.10
22322;BMP180;11328;53.928;18.522;2024-03-07T06:56:34;101509.00;;;5.20
22322;BMP180;11328;53.928;18.522;2024-03-07T06:59:01;101497.00;;;5.30
22322;BMP180;11328;53.928;18.522;2024-03-07T07:01:31;101513.00;;;5.60
22322;BMP180;11328;53.928;18.522;2024-03-07T07:04:00;101503.00;;;5.70
22322;BMP180;11328;53.928;18.522;2024-03-07T07:06:30;101505.00;;;5.80
22322;BMP180;11328;53.928;18.522;2024-03-07T07:08:58;101508.00;;;5.80
22322;BMP180;11328;53.928;18.522;2024-03-07T07:11:26;101501.00;;;6.00
22322;BMP180;11328;53.928;18.522;2024-03-07T07:13:59;101491.00;;;6.20
22322;BMP180;11328;53.928;18.522;2024-03-07T07:16:26;101515.00;;;6.30
22322;BMP180;11328;53.928;18.522;2024-03-07T07:18:54;101506.00;;;6.50
22322;BMP180;11328;53.928;18.522;2024-03-07T07:21:22;101512.00;;;6.50
22322;BMP180;11328;53.928;18.522;2024-03-07T07:23:49;101514.00;;;6.60
22322;BMP180;11328;53.928;18.522;2024-03-07T07:26:16;101512.00;;;6.70
22322;BMP180;11328;53.928;18.522;2024-03-07T07:28:43;101514.00;;;6.80
22322;BMP180;11328;53.928;18.522;2024-03-07T07:31:10;101506.00;;;6.90
22322;BMP180;11328;53.928;18.522;2024-03-07T07:33:37;101521.00;;;7.00
22322;BMP180;11328;53.928;18.522;2024-03-07T07:36:05;101507.00;;;7.00
22322;BMP180;11328;53.928;18.522;2024-03-07T07:38:32;101514.00;;;7.20
22322;BMP180;11328;53.928;18.522;2024-03-07T07:40:59;101511.00;;;7.30
22322;BMP180;11328;53.928;18.522;2024-03-07T07:43:27;101513.00;;;7.40
22322;BMP180;11328;53.928;18.522;2024-03-07T07:46:08;101498.00;;;7.30
22322;BMP180;11328;53.928;18.522;2024-03-07T07:48:35;101508.00;;;7.60
22322;BMP180;11328;53.928;18.522;2024-03-07T07:51:03;101511.00;;;7.70
22322;BMP180;11328;53.928;18.522;2024-03-07T07:53:32;101527.00;;;7.70
22322;BMP180;11328;53.928;18.522;2024-03-07T07:56:00;101516.00;;;7.80
22322;BMP180;11328;53.928;18.522;2024-03-07T07:58:27;101526.00;;;7.90
22322;BMP180;11328;53.928;18.522;2024-03-07T08:00:55;101517.00;;;8.00
22322;BMP180;11328;53.928;18.522;2024-03-07T08:03:22;101516.00;;;7.90
22322;BMP180;11328;53.928;18.522;2024-03-07T08:05:50;101519.00;;;7.90
22322;BMP180;11328;53.928;18.522;2024-03-07T08:08:17;101511.00;;;7.80
22322;BMP180;11328;53.928;18.522;2024-03-07T08:10:46;101492.00;;;7.90
22322;BMP180;11328;53.928;18.522;2024-03-07T08:13:15;101518.00;;;8.00
22322;BMP180;11328;53.928;18.522;2024-03-07T08:15:42;101524.00;;;8.10
22322;BMP180;11328;53.928;18.522;2024-03-07T08:18:09;101530.00;;;8.20
22322;BMP180;11328;53.928;18.522;2024-03-07T08:20:39;101503.00;;;8.30
22322;BMP180;11328;53.928;18.522;2024-03-07T08:23:08;101517.00;;;8.30
22322;BMP180;11328;53.928;18.522;2024-03-07T08:25:36;101517.00;;;8.50
22322;BMP180;11328;53.928;18.522;2024-03-07T08:28:07;101519.00;;;8.60
22322;BMP180;11328;53.928;18.522;2024-03-07T08:30:34;101516.00;;;8.80
22322;BMP180;11328;53.928;18.522;2024-03-07T08:33:02;101520.00;;;8.70
22322;BMP180;11328;53.928;18.522;2024-03-07T08:35:33;101527.00;;;9.00
22322;BMP180;11328;53.928;18.522;2024-03-07T08:38:00;101531.00;;;9.00
22322;BMP180;11328;53.928;18.522;2024-03-07T08:40:30;101524.00;;;9.10
22322;BMP180;11328;53.928;18.522;2024-03-07T08:43:02;101529.00;;;9.10
22322;BMP180;11328;53.928;18.522;2024-03-07T08:45:30;101522.00;;;9.00
22322;BMP180;11328;53.928;18.522;2024-03-07T08:48:02;101522.00;;;9.10
22322;BMP180;11328;53.928;18.522;2024-03-07T08:50:36;101519.00;;;9.00
22322;BMP180;11328;53.928;18.522;2024-03-07T08:53:05;101513.00;;;9.10
22322;BMP180;11328;53.928;18.522;2024-03-07T08:55:33;101512.00;;;9.20
22322;BMP180;11328;53.928;18.522;2024-03-07T08:58:03;101528.00;;;9.50
22322;BMP180;11328;53.928;18.522;2024-03-07T09:00:30;101524.00;;;9.50
22322;BMP180;11328;53.928;18.522;2024-03-07T09:03:01;101518.00;;;9.50
22322;BMP180;11328;53.928;18.522;2024-03-07T09:05:38;101511.00;;;9.60
22322;BMP180;11328;53.928;18.522;2024-03-07T09:08:06;101518.00;;;9.70
22322;BMP180;11328;53.928;18.522;2024-03-07T09:10:34;101519.00;;;9.50
22322;BMP180;11328;53.928;18.522;2024-03-07T09:13:01;101521.00;;;9.40
22322;BMP180;11328;53.928;18.522;2024-03-07T09:15:29;101520.00;;;9.60
22322;BMP180;11328;53.928;18.522;2024-03-07T09:17:56;101521.00;;;9.50
22322;BMP180;11328;53.928;18.522;2024-03-07T09:20:25;101529.00;;;9.50
22322;BMP180;11328;53.928;18.522;2024-03-07T09:22:52;101514.00;;;9.70
22322;BMP180;11328;53.928;18.522;2024-03-07T09:25:22;101527.00;;;9.70
22322;BMP180;11328;53.928;18.522;2024-03-07T09:27:51;101518.00;;;9.60
22322;BMP180;11328;53.928;18.522;2024-03-07T09:30:19;101524.00;;;9.70
22322;BMP180;11328;53.928;18.522;2024-03-07T09:32:51;101518.00;;;9.70
22322;BMP180;11328;53.928;18.522;2024-03-07T09:35:18;101537.00;;;10.00
22322;BMP180;11328;53.928;18.522;2024-03-07T09:37:46;101528.00;;;10.20
22322;BMP180;11328;53.928;18.522;2024-03-07T09:40:13;101526.00;;;10.20
22322;BMP180;11328;53.928;18.522;2024-03-07T09:42:49;101526.00;;;10.00
22322;BMP180;11328;53.928;18.522;2024-03-07T09:45:21;101509.00;;;9.80
22322;BMP180;11328;53.928;18.522;2024-03-07T09:47:51;101521.00;;;9.80
22322;BMP180;11328;53.928;18.522;2024-03-07T09:50:21;101514.00;;;9.90
22322;BMP180;11328;53.928;18.522;2024-03-07T09:52:52;101521.00;;;10.10
22322;BMP180;11328;53.928;18.522;2024-03-07T09:55:22;101527.00;;;10.30
22322;BMP180;11328;53.928;18.522;2024-03-07T09:57:54;101529.00;;;10.30
22322;BMP180;11328;53.928;18.522;2024-03-07T10:00:25;101507.00;;;10.10
22322;BMP180;11328;53.928;18.522;2024-03-07T10:03:09;101531.00;;;10.20
22322;BMP180;11328;53.928;18.522;2024-03-07T10:05:37;101500.00;;;10.30
22322;BMP180;11328;53.928;18.522;2024-03-07T10:08:06;101524.00;;;10.30
22322;BMP180;11328;53.928;18.522;2024-03-07T10:10:34;101527.00;;;10.30
22322;BMP180;11328;53.928;18.522;2024-03-07T10:13:01;101523.00;;;10.20
22322;BMP180;11328;53.928;18.522;2024-03-07T10:15:31;101525.00;;;10.40
22322;BMP180;11328;53.928;18.522;2024-03-07T10:17:59;101530.00;;;10.30
22322;BMP180;11328;53.928;18.522;2024-03-07T10:20:28;101532.00;;;10.40
22322;BMP180;11328;53.928;18.522;2024-03-07T10:22:55;101532.00;;;10.60
22322;BMP180;11328;53.928;18.522;2024-03-07T10:25:27;101525.00;;;10.10
22322;BMP180;11328;53.928;18.522;2024-03-07T10:27:56;101508.00;;;9.80
22322;BMP180;11328;53.928;18.522;2024-03-07T10:30:26;101536.00;;;9.90
22322;BMP180;11328;53.928;18.522;2024-03-07T10:32:59;101534.00;;;9.70
22322;BMP180;11328;53.928;18.522;2024-03-07T10:35:28;101534.00;;;9.70
22322;BMP180;11328;53.928;18.522;2024-03-07T10:37:57;101510.00;;;9.60
22322;BMP180;11328;53.928;18.522;2024-03-07T10:40:34;101536.00;;;9.80
22322;BMP180;11328;53.928;18.522;2024-03-07T10:43:10;101533.00;;;9.90
22322;BMP180;11328;53.928;18.522;2024-03-07T10:45:46;101536.00;;;10.10
22322;BMP180;11328;53.928;18.522;2024-03-07T10:48:17;101533.00;;;10.10
22322;BMP180;11328;53.928;18.522;2024-03-07T10:51:29;101531.00;;;9.80
22322;BMP180;11328;53.928;18.522;2024-03-07T10:54:22;101524.00;;;9.60
22322;BMP180;11328;53.928;18.522;2024-03-07T11:00:03;101537.00;;;9.80
22322;BMP180;11328;53.928;18.522;2024-03-07T11:03:00;101517.00;;;9.70
22322;BMP180;11328;53.928;18.522;2024-03-07T11:05:29;101523.00;;;9.50
22322;BMP180;11328;53.928;18.522;2024-03-07T11:07:59;101522.00;;;9.50
22322;BMP180;11328;53.928;18.522;2024-03-07T11:10:30;101516.00;;;9.50
22322;BMP180;11328;53.928;18.522;2024-03-07T11:12:59;101513.00;;;9.80
22322;BMP180;11328;53.928;18.522;2024-03-07T11:15:28;101511.00;;;9.80
22322;BMP180;11328;53.928;18.522;2024-03-07T11:17:55;101506.00;;;9.70
22322;BMP180;11328;53.928;18.522;2024-03-07T11:20:25;101511.00;;;9.90
22322;BMP180;11328;53.928;18.522;2024-03-07T11:22:53;101518.00;;;10.10
22322;BMP180;11328;53.928;18.522;2024-03-07T11:25:26;101504.00;;;9.90
22322;BMP180;11328;53.928;18.522;2024-03-07T11:28:01;101505.00;;;9.90
22322;BMP180;11328;53.928;18.522;2024-03-07T11:30:29;101512.00;;;9.60
22322;BMP180;11328;53.928;18.522;2024-03-07T11:32:56;101492.00;;;9.50
22322;BMP180;11328;53.928;18.522;2024-03-07T11:35:33;101468.00;;;9.40
22322;BMP180;11328;53.928;18.522;2024-03-07T11:38:07;101498.00;;;9.40
22322;BMP180;11328;53.928;18.522;2024-03-07T11:43:03;101496.00;;;9.60
22322;BMP180;11328;53.928;18.522;2024-03-07T11:45:34;101491.00;;;9.70
22322;BMP180;11328;53.928;18.522;2024-03-07T11:48:06;101489.00;;;9.70
22322;BMP180;11328;53.928;18.522;2024-03-07T11:50:38;101482.00;;;9.80
22322;BMP180;11328;53.928;18.522;2024-03-07T11:53:08;101485.00;;;9.70
22322;BMP180;11328;53.928;18.522;2024-03-07T11:55:37;101483.00;;;9.60
22322;BMP180;11328;53.928;18.522;2024-03-07T11:58:20;101476.00;;;9.60
22322;BMP180;11328;53.928;18.522;2024-03-07T12:00:51;101477.00;;;9.10
22322;BMP180;11328;53.928;18.522;2024-03-07T12:03:20;101469.00;;;9.10
22322;BMP180;11328;53.928;18.522;2024-03-07T12:05:49;101462.00;;;9.10
22322;BMP180;11328;53.928;18.522;2024-03-07T12:08:18;101472.00;;;9.30
22322;BMP180;11328;53.928;18.522;2024-03-07T12:10:52;101469.00;;;9.40
22322;BMP180;11328;53.928;18.522;2024-03-07T12:13:25;101467.00;;;9.50
22322;BMP180;11328;53.928;18.522;2024-03-07T12:15:55;101459.00;;;9.60
22322;BMP180;11328;53.928;18.522;2024-03-07T12:18:24;101460.00;;;9.60
22322;BMP180;11328;53.928;18.522;2024-03-07T12:20:52;101463.00;;;9.50
22322;BMP180;11328;53.928;18.522;2024-03-07T12:23:25;101463.00;;;9.50
22322;BMP180;11328;53.928;18.522;2024-03-07T12:26:02;101460.00;;;9.70
22322;BMP180;11328;53.928;18.522;2024-03-07T12:28:30;101459.00;;;9.60
22322;BMP180;11328;53.928;18.522;2024-03-07T12:31:02;101465.00;;;9.50
22322;BMP180;11328;53.928;18.522;2024-03-07T12:33:30;101468.00;;;9.60
22322;BMP180;11328;53.928;18.522;2024-03-07T12:36:03;101449.00;;;9.40
22322;BMP180;11328;53.928;18.522;2024-03-07T12:38:36;101458.00;;;9.50
22322;BMP180;11328;53.928;18.522;2024-03-07T12:41:05;101451.00;;;9.50
22322;BMP180;11328;53.928;18.522;2024-03-07T12:43:34;101456.00;;;9.40
22322;BMP180;11328;53.928;18.522;2024-03-07T12:46:05;101453.00;;;9.50
22322;BMP180;11328;53.928;18.522;2024-03-07T12:48:33;101448.00;;;9.50
22322;BMP180;11328;53.928;18.522;2024-03-07T12:51:00;101445.00;;;9.50
22322;BMP180;11328;53.928;18.522;2024-03-07T12:53:29;101451.00;;;9.40
22322;BMP180;11328;53.928;18.522;2024-03-07T12:55:58;101443.00;;;9.40
22322;BMP180;11328;53.928;18.522;2024-03-07T12:58:25;101443.00;;;9.00
22322;BMP180;11328;53.928;18.522;2024-03-07T13:00:54;101446.00;;;9.10
22322;BMP180;11328;53.928;18.522;2024-03-07T13:03:24;101418.00;;;8.90
22322;BMP180;11328;53.928;18.522;2024-03-07T13:05:59;101444.00;;;9.00
22322;BMP180;11328;53.928;18.522;2024-03-07T13:08:29;101425.00;;;9.00
22322;BMP180;11328;53.928;18.522;2024-03-07T13:10:57;101396.00;;;9.00
22322;BMP180;11328;53.928;18.522;2024-03-07T13:13:27;101431.00;;;9.10
22322;BMP180;11328;53.928;18.522;2024-03-07T13:15:54;101392.00;;;9.10
22322;BMP180;11328;53.928;18.522;2024-03-07T13:18:24;101428.00;;;9.30
22322;BMP180;11328;53.928;18.522;2024-03-07T13:20:52;101435.00;;;9.20
22322;BMP180;11328;53.928;18.522;2024-03-07T13:23:19;101435.00;;;9.20
22322;BMP180;11328;53.928;18.522;2024-03-07T13:25:46;101433.00;;;9.30
22322;BMP180;11328;53.928;18.522;2024-03-07T13:28:16;101429.00;;;9.10
22322;BMP180;11328;53.928;18.522;2024-03-07T13:30:45;101418.00;;;8.90
22322;BMP180;11328;53.928;18.522;2024-03-07T13:33:16;101422.00;;;8.90
22322;BMP180;11328;53.928;18.522;2024-03-07T13:35:44;101418.00;;;8.70
22322;BMP180;11328;53.928;18.522;2024-03-07T13:38:11;101416.00;;;8.70
22322;BMP180;11328;53.928;18.522;2024-03-07T13:40:40;101408.00;;;8.90
22322;BMP180;11328;53.928;18.522;2024-03-07T13:43:08;101422.00;;;9.00
22322;BMP180;11328;53.928;18.522;2024-03-07T13:45:36;101413.00;;;9.00
22322;BMP180;11328;53.928;18.522;2024-03-07T13:48:09;101412.00;;;8.80
22322;BMP180;11328;53.928;18.522;2024-03-07T13:50:46;101413.00;;;8.70
22322;BMP180;11328;53.928;18.522;2024-03-07T13:53:27;101416.00;;;8.80
22322;BMP180;11328;53.928;18.522;2024-03-07T13:56:31;101409.00;;;8.90
22322;BMP180;11328;53.928;18.522;2024-03-07T14:11:11;101403.00;;;8.60
22322;BMP180;11328;53.928;18.522;2024-03-07T14:20:47;101395.00;;;8.50
22322;BMP180;11328;53.928;18.522;2024-03-07T14:29:46;101386.00;;;8.40
22322;BMP180;11328;53.928;18.522;2024-03-07T14:32:16;101385.00;;;8.50
22322;BMP180;11328;53.928;18.522;2024-03-07T14:38:34;101375.00;;;8.30
22322;BMP180;11328;53.928;18.522;2024-03-07T14:41:11;101369.00;;;8.30
22322;BMP180;11328;53.928;18.522;2024-03-07T14:43:39;101378.00;;;8.40